createdAt,value
2023-01-17T00:02:22.319Z,0.20
2023-01-17T00:05:07.871Z,0.38
2023-01-17T00:07:54.726Z,0.52
2023-01-17T00:10:29.004Z,0.77
2023-01-17T00:13:00.501Z,0.40
2023-01-17T00:15:28.432Z,0.75
2023-01-17T00:17:56.029Z,0.57
2023-01-17T00:20:44.147Z,0.60
2023-01-17T00:23:38.202Z,0.45
2023-01-17T00:26:19.013Z,0.60
2023-01-17T00:28:46.745Z,0.35
2023-01-17T00:31:15.557Z,0.30
2023-01-17T00:33:45.520Z,0.22
2023-01-17T00:36:12.109Z,0.60
2023-01-17T00:38:41.172Z,0.63
2023-01-17T00:41:14.304Z,0.68
2023-01-17T00:43:59.742Z,0.40
2023-01-17T00:46:45.668Z,0.30
2023-01-17T00:49:33.319Z,0.50
2023-01-17T00:52:19.278Z,0.43
2023-01-17T00:55:08.716Z,0.28
2023-01-17T00:57:53.990Z,0.05
2023-01-17T01:00:40.797Z,0.20
2023-01-17T01:03:33.043Z,0.00
2023-01-17T01:06:22.830Z,0.38
2023-01-17T01:09:12.522Z,0.10
2023-01-17T01:11:57.609Z,0.10
2023-01-17T01:14:42.902Z,0.40
2023-01-17T01:17:30.492Z,0.10
2023-01-17T01:20:16.481Z,0.10
2023-01-17T01:23:03.018Z,0.10
2023-01-17T01:25:48.627Z,0.20
2023-01-17T01:28:34.540Z,0.28
2023-01-17T01:31:23.897Z,0.28
2023-01-17T01:33:54.417Z,0.10
2023-01-17T01:36:22.225Z,0.13
2023-01-17T01:38:50.565Z,0.40
2023-01-17T01:43:51.073Z,0.30
2023-01-17T01:46:37.739Z,0.30
2023-01-17T01:49:24.834Z,0.63
2023-01-17T01:51:59.215Z,0.38
2023-01-17T01:54:32.673Z,0.43
2023-01-17T01:57:03.571Z,0.38
2023-01-17T01:59:31.322Z,0.98
2023-01-17T02:02:18.166Z,0.30
2023-01-17T02:04:47.390Z,0.32
2023-01-17T02:07:20.334Z,0.60
2023-01-17T02:09:47.673Z,0.55
2023-01-17T02:12:14.647Z,0.57
2023-01-17T02:14:43.700Z,0.55
2023-01-17T02:17:18.957Z,0.40
2023-01-17T02:20:17.357Z,0.32
2023-01-17T02:23:20.585Z,0.10
2023-01-17T02:26:26.845Z,0.30
2023-01-17T02:29:11.747Z,0.60
2023-01-17T02:31:51.310Z,0.15
2023-01-17T02:34:22.364Z,0.40
2023-01-17T02:37:18.252Z,0.20
2023-01-17T02:39:56.171Z,0.13
2023-01-17T02:42:31.596Z,0.10
2023-01-17T02:45:02.949Z,0.32
2023-01-17T02:47:32.254Z,0.30
2023-01-17T02:50:09.879Z,0.20
2023-01-17T02:52:55.539Z,0.77
2023-01-17T02:55:37.194Z,0.40
2023-01-17T02:58:36.802Z,0.40
2023-01-17T03:01:31.363Z,0.50
2023-01-17T03:04:04.977Z,0.35
2023-01-17T03:06:44.070Z,0.35
2023-01-17T03:09:12.855Z,0.38
2023-01-17T03:11:39.430Z,0.50
2023-01-17T03:14:09.666Z,0.43
2023-01-17T03:16:36.634Z,0.32
2023-01-17T03:19:03.981Z,0.50
2023-01-17T03:21:31.157Z,0.45
2023-01-17T03:23:58.808Z,0.50
2023-01-17T03:26:25.498Z,0.40
2023-01-17T03:28:52.523Z,0.57
2023-01-17T03:31:20.103Z,0.20
2023-01-17T03:33:47.366Z,0.50
2023-01-17T03:36:15.971Z,0.25
2023-01-17T03:41:09.376Z,0.47
2023-01-17T03:43:36.518Z,1.10
2023-01-17T03:46:05.329Z,0.50
2023-01-17T03:48:36.605Z,0.75
2023-01-17T03:51:03.620Z,0.32
2023-01-17T03:53:30.460Z,0.50
2023-01-17T03:55:59.564Z,0.80
2023-01-17T03:58:29.552Z,0.38
2023-01-17T04:00:56.566Z,0.30
2023-01-17T04:03:23.533Z,0.30
2023-01-17T04:05:51.580Z,0.45
2023-01-17T04:08:18.408Z,0.60
2023-01-17T04:10:45.404Z,0.52
2023-01-17T04:13:13.593Z,0.40
2023-01-17T04:15:46.234Z,0.73
2023-01-17T04:18:13.948Z,0.50
2023-01-17T04:20:41.227Z,0.70
2023-01-17T04:23:08.753Z,0.75
2023-01-17T04:25:35.597Z,0.30
2023-01-17T04:28:07.266Z,1.38
2023-01-17T04:30:34.118Z,0.20
2023-01-17T04:33:00.849Z,0.50
2023-01-17T04:35:30.649Z,0.35
2023-01-17T04:37:57.583Z,0.50
2023-01-17T04:40:25.889Z,0.90
2023-01-17T04:42:54.396Z,0.50
2023-01-17T04:47:48.390Z,0.30
2023-01-17T04:50:18.509Z,0.47
2023-01-17T04:52:46.481Z,0.63
2023-01-17T04:55:13.275Z,0.47
2023-01-17T04:57:40.325Z,0.47
2023-01-17T05:00:07.923Z,0.40
2023-01-17T05:02:35.025Z,0.50
2023-01-17T05:05:04.611Z,0.88
2023-01-17T05:07:31.313Z,0.50
2023-01-17T05:10:01.197Z,0.40
2023-01-17T05:12:28.411Z,0.40
2023-01-17T05:14:55.197Z,0.98
2023-01-17T05:17:22.469Z,0.47
2023-01-17T05:19:55.030Z,0.50
2023-01-17T05:22:24.050Z,0.82
2023-01-17T05:24:51.377Z,1.33
2023-01-17T05:27:19.406Z,0.50
2023-01-17T05:29:46.068Z,0.57
2023-01-17T05:32:12.915Z,0.50
2023-01-17T05:34:39.833Z,0.40
2023-01-17T05:37:06.496Z,0.55
2023-01-17T05:39:33.505Z,0.40
2023-01-17T05:42:00.410Z,0.50
2023-01-17T05:44:27.702Z,0.52
2023-01-17T05:46:57.345Z,0.40
2023-01-17T05:49:24.287Z,0.50
2023-01-17T05:51:54.723Z,0.63
2023-01-17T05:54:23.580Z,0.80
2023-01-17T05:56:50.234Z,0.70
2023-01-17T05:59:20.555Z,0.93
2023-01-17T06:01:55.085Z,0.77
2023-01-17T06:04:22.248Z,0.50
2023-01-17T06:06:49.468Z,0.70
2023-01-17T06:09:16.313Z,1.33
2023-01-17T06:11:44.970Z,0.73
2023-01-17T06:14:14.026Z,1.00
2023-01-17T06:16:41.001Z,0.98
2023-01-17T06:19:09.744Z,1.15
2023-01-17T06:21:36.581Z,1.25
2023-01-17T06:24:04.405Z,1.15
2023-01-17T06:26:31.115Z,1.10
2023-01-17T06:29:00.502Z,1.20
2023-01-17T06:31:29.022Z,1.20
2023-01-17T06:36:24.395Z,0.57
2023-01-17T06:38:54.879Z,0.80
2023-01-17T06:41:23.278Z,0.95
2023-01-17T06:43:50.106Z,1.48
2023-01-17T06:46:19.215Z,0.70
2023-01-17T06:48:48.773Z,1.05
2023-01-17T06:51:15.951Z,1.10
2023-01-17T06:53:43.909Z,1.73
2023-01-17T06:56:13.226Z,1.00
2023-01-17T06:58:42.075Z,1.00
2023-01-17T07:01:10.522Z,1.40
2023-01-17T07:06:07.318Z,1.10
2023-01-17T07:08:34.304Z,1.40
2023-01-17T07:11:03.938Z,1.05
2023-01-17T07:13:36.634Z,1.27
2023-01-17T07:16:04.726Z,1.52
2023-01-17T07:18:37.557Z,1.10
2023-01-17T07:21:05.409Z,1.52
2023-01-17T07:23:34.623Z,1.40
2023-01-17T07:26:05.213Z,1.95
2023-01-17T07:28:33.551Z,1.80
2023-01-17T07:31:06.108Z,1.77
2023-01-17T07:33:33.337Z,1.73
2023-01-17T07:36:04.800Z,1.98
2023-01-17T07:38:34.164Z,1.70
2023-01-17T07:41:03.651Z,1.65
2023-01-17T07:43:30.198Z,1.40
2023-01-17T07:45:57.617Z,1.60
2023-01-17T07:48:25.538Z,1.70
2023-01-17T07:50:57.299Z,1.60
2023-01-17T07:53:31.540Z,1.85
2023-01-17T07:56:04.405Z,1.85
2023-01-17T07:58:33.043Z,1.73
2023-01-17T08:01:08.334Z,1.42
2023-01-17T08:03:39.852Z,1.60
2023-01-17T08:06:22.198Z,1.50
2023-01-17T08:08:53.282Z,1.55
2023-01-17T08:11:19.991Z,1.40
2023-01-17T08:13:46.507Z,1.50
2023-01-17T08:16:13.784Z,1.75
2023-01-17T08:18:40.595Z,1.00
2023-01-17T08:21:14.575Z,1.52
2023-01-17T08:23:47.315Z,1.35
2023-01-17T08:26:22.718Z,1.10
2023-01-17T08:29:01.653Z,1.23
2023-01-17T08:31:30.510Z,1.48
2023-01-17T08:33:59.119Z,1.17
2023-01-17T08:36:27.763Z,1.20
2023-01-17T08:38:55.603Z,1.17
2023-01-17T08:41:26.679Z,1.50
2023-01-17T08:43:55.592Z,1.08
2023-01-17T08:46:23.312Z,1.60
2023-01-17T08:48:56.341Z,1.45
2023-01-17T08:51:26.296Z,1.60
2023-01-17T08:53:55.649Z,1.70
2023-01-17T08:56:23.847Z,1.27
2023-01-17T08:58:51.076Z,1.50
2023-01-17T09:01:18.606Z,1.33
2023-01-17T09:03:45.741Z,1.40
2023-01-17T09:06:16.252Z,1.15
2023-01-17T09:08:47.127Z,1.17
2023-01-17T09:11:17.189Z,1.50
2023-01-17T09:13:44.911Z,1.10
2023-01-17T09:16:14.156Z,1.35
2023-01-17T09:18:41.907Z,1.13
2023-01-17T09:21:17.676Z,1.25
2023-01-17T09:23:44.706Z,1.13
2023-01-17T09:26:25.800Z,1.20
2023-01-17T09:28:53.362Z,1.58
2023-01-17T09:31:23.559Z,1.23
2023-01-17T09:33:51.967Z,0.95
2023-01-17T09:38:46.056Z,0.90
2023-01-17T09:41:34.718Z,1.13
2023-01-17T09:44:25.889Z,1.27
2023-01-17T09:46:56.241Z,1.10
2023-01-17T09:50:20.283Z,0.90
2023-01-17T09:52:49.415Z,1.15
2023-01-17T09:55:18.101Z,1.58
2023-01-17T09:57:57.703Z,0.95
2023-01-17T10:00:41.098Z,1.17
2023-01-17T10:03:25.994Z,1.65
2023-01-17T10:06:19.511Z,1.42
2023-01-17T10:09:04.202Z,1.38
2023-01-17T10:11:51.814Z,1.90
2023-01-17T10:14:46.869Z,1.52
2023-01-17T10:17:36.470Z,1.90
2023-01-17T10:20:35.687Z,2.00
2023-01-17T10:23:38.121Z,2.38
2023-01-17T10:26:11.593Z,1.33
2023-01-17T10:28:47.060Z,1.50
2023-01-17T10:31:19.808Z,1.70
2023-01-17T10:33:59.651Z,1.95
2023-01-17T10:36:29.727Z,1.63
2023-01-17T10:39:00.812Z,2.00
2023-01-17T10:41:36.983Z,1.83
2023-01-17T10:44:31.432Z,1.55
2023-01-17T10:47:07.676Z,1.88
2023-01-17T10:49:34.413Z,2.10
2023-01-17T10:52:39.549Z,2.25
2023-01-17T10:55:16.022Z,2.10
2023-01-17T10:57:48.793Z,2.22
2023-01-17T11:00:40.234Z,2.92
2023-01-17T11:03:10.385Z,2.92
2023-01-17T11:05:37.914Z,2.72
2023-01-17T11:08:08.157Z,3.10
2023-01-17T11:10:47.257Z,3.38
2023-01-17T11:13:22.723Z,2.95
2023-01-17T11:15:53.409Z,3.55
2023-01-17T11:18:22.104Z,3.00
2023-01-17T11:20:50.127Z,3.20
2023-01-17T11:23:21.713Z,2.95
2023-01-17T11:25:58.135Z,3.42
2023-01-17T11:28:30.707Z,3.60
2023-01-17T11:31:27.550Z,3.10
2023-01-17T11:34:22.609Z,3.20
2023-01-17T11:36:50.756Z,3.00
2023-01-17T11:39:17.306Z,3.20
2023-01-17T11:41:46.099Z,3.40
2023-01-17T11:44:29.603Z,3.10
2023-01-17T11:47:09.914Z,3.63
2023-01-17T11:49:44.304Z,2.65
2023-01-17T11:52:18.105Z,3.42
2023-01-17T11:54:47.914Z,3.47
2023-01-17T11:57:34.229Z,3.50
2023-01-17T12:00:45.997Z,3.50
2023-01-17T12:03:40.692Z,3.63
2023-01-17T12:06:10.386Z,3.17
2023-01-17T12:08:56.082Z,2.88
2023-01-17T12:11:32.188Z,2.72
2023-01-17T12:14:37.269Z,3.10
2023-01-17T12:17:48.825Z,2.75
2023-01-17T12:20:25.121Z,2.40
2023-01-17T12:23:14.177Z,2.30
2023-01-17T12:26:19.488Z,2.42
2023-01-17T12:29:30.521Z,2.30
2023-01-17T12:32:15.184Z,2.17
2023-01-17T12:35:10.938Z,2.00
2023-01-17T12:37:41.845Z,1.83
2023-01-17T12:40:22.513Z,1.58
2023-01-17T12:43:25.222Z,1.88
2023-01-17T12:45:55.697Z,1.73
2023-01-17T12:48:26.409Z,1.30
2023-01-17T12:51:07.062Z,0.93
2023-01-17T12:54:09.346Z,1.60
2023-01-17T12:56:42.650Z,1.10
2023-01-17T12:59:16.083Z,1.40
2023-01-17T13:01:58.065Z,1.35
2023-01-17T13:04:24.882Z,1.55
2023-01-17T13:07:01.108Z,3.38
2023-01-17T13:09:38.307Z,2.17
2023-01-17T13:12:06.866Z,1.40
2023-01-17T13:14:33.774Z,1.30
2023-01-17T13:17:18.860Z,1.10
2023-01-17T13:20:03.166Z,1.30
2023-01-17T13:22:31.968Z,1.27
2023-01-17T13:25:37.443Z,1.00
2023-01-17T13:28:13.271Z,1.30
2023-01-17T13:30:57.035Z,1.10
2023-01-17T13:33:58.165Z,1.02
2023-01-17T13:36:48.089Z,1.23
2023-01-17T13:39:33.666Z,1.05
2023-01-17T13:42:11.845Z,0.90
2023-01-17T13:44:38.986Z,1.13
2023-01-17T13:47:17.602Z,1.00
2023-01-17T13:49:49.522Z,0.90
2023-01-17T13:52:19.533Z,1.05
2023-01-17T13:54:53.320Z,1.00
2023-01-17T13:57:29.235Z,0.70
2023-01-17T13:59:58.073Z,0.70
2023-01-17T14:02:34.727Z,0.85
2023-01-17T14:05:42.603Z,0.80
2023-01-17T14:08:21.957Z,0.93
2023-01-17T14:10:52.189Z,0.98
2023-01-17T14:13:45.350Z,1.00
2023-01-17T14:16:27.809Z,1.00
2023-01-17T14:18:56.149Z,0.77
2023-01-17T14:21:24.085Z,0.98
2023-01-17T14:23:54.759Z,0.90
2023-01-17T14:26:28.706Z,1.13
2023-01-17T14:28:59.120Z,1.10
2023-01-17T14:31:28.605Z,1.13
2023-01-17T14:33:55.818Z,0.80
2023-01-17T14:36:26.609Z,0.82
2023-01-17T14:38:53.235Z,0.90
2023-01-17T14:41:23.495Z,0.73
2023-01-17T14:43:53.575Z,1.20
2023-01-17T14:46:27.619Z,1.13
2023-01-17T14:49:18.582Z,0.98
2023-01-17T14:51:59.705Z,1.10
2023-01-17T14:54:26.582Z,0.90
2023-01-17T14:57:14.338Z,1.15
2023-01-17T14:59:41.163Z,1.23
2023-01-17T15:02:15.459Z,1.20
2023-01-17T15:04:43.340Z,1.20
2023-01-17T15:07:17.013Z,1.17
2023-01-17T15:09:44.844Z,1.25
2023-01-17T15:12:14.563Z,1.02
2023-01-17T15:14:47.129Z,1.13
2023-01-17T15:17:43.830Z,1.25
2023-01-17T15:20:17.012Z,1.30
2023-01-17T15:22:43.999Z,1.40
2023-01-17T15:25:12.094Z,1.55
2023-01-17T15:27:39.155Z,1.33
2023-01-17T15:30:08.886Z,1.48
2023-01-17T15:32:37.558Z,1.45
2023-01-17T15:35:08.392Z,1.27
2023-01-17T15:37:40.083Z,1.58
2023-01-17T15:40:18.122Z,1.40
2023-01-17T15:42:49.742Z,1.40
2023-01-17T15:45:22.633Z,1.33
2023-01-17T15:47:49.858Z,1.15
2023-01-17T15:50:26.785Z,1.30
2023-01-17T15:52:57.683Z,1.00
2023-01-17T15:55:34.854Z,1.00
2023-01-17T15:58:02.883Z,1.30
2023-01-17T16:00:40.600Z,1.13
2023-01-17T16:03:30.756Z,1.33
2023-01-17T16:06:00.354Z,1.45
2023-01-17T16:08:38.956Z,1.20
2023-01-17T16:11:11.458Z,1.50
2023-01-17T16:13:43.609Z,1.42
2023-01-17T16:16:23.035Z,1.42
2023-01-17T16:18:58.630Z,1.25
2023-01-17T16:21:29.772Z,1.20
2023-01-17T16:23:56.823Z,1.50
2023-01-17T16:26:24.457Z,1.42
2023-01-17T16:28:55.118Z,1.43
2023-01-17T16:31:23.062Z,1.50
2023-01-17T16:33:52.307Z,1.40
2023-01-17T16:36:21.205Z,1.17
2023-01-17T16:38:50.974Z,1.38
2023-01-17T16:41:20.686Z,1.02
2023-01-17T16:43:57.652Z,1.40
2023-01-17T16:46:27.014Z,1.50
2023-01-17T16:49:02.200Z,1.40
2023-01-17T16:51:29.622Z,1.52
2023-01-17T16:53:56.242Z,1.73
2023-01-17T16:56:23.164Z,2.00
2023-01-17T16:58:53.160Z,1.45
2023-01-17T17:01:21.386Z,1.70
2023-01-17T17:03:48.384Z,1.60
2023-01-17T17:06:15.405Z,1.55
2023-01-17T17:08:43.437Z,1.55
2023-01-17T17:11:19.709Z,1.65
2023-01-17T17:13:48.624Z,1.55
2023-01-17T17:16:22.453Z,1.92
2023-01-17T17:19:00.860Z,1.67
2023-01-17T17:23:59.626Z,1.95
2023-01-17T17:26:31.262Z,1.95
2023-01-17T17:29:02.200Z,1.75
2023-01-17T17:31:30.192Z,1.92
2023-01-17T17:34:01.282Z,2.10
2023-01-17T17:36:28.195Z,2.08
2023-01-17T17:38:57.445Z,1.95
2023-01-17T17:41:30.929Z,2.15
2023-01-17T17:44:00.331Z,1.92
2023-01-17T17:46:29.342Z,2.33
2023-01-17T17:48:57.919Z,2.38
2023-01-17T17:53:52.823Z,2.05
2023-01-17T17:58:49.785Z,1.95
2023-01-17T18:01:16.778Z,2.55
2023-01-17T18:03:43.788Z,2.30
2023-01-17T18:06:12.660Z,2.90
2023-01-17T18:08:39.816Z,2.25
2023-01-17T18:11:11.672Z,2.38
2023-01-17T18:13:39.429Z,2.75
2023-01-17T18:16:11.477Z,2.97
2023-01-17T18:18:43.818Z,2.88
2023-01-17T18:21:23.656Z,3.40
2023-01-17T18:23:58.779Z,3.10
2023-01-17T18:26:31.126Z,2.72
2023-01-17T18:28:59.721Z,2.78
2023-01-17T18:31:28.748Z,3.22
2023-01-17T18:33:57.995Z,2.63
2023-01-17T18:36:25.896Z,3.10
2023-01-17T18:38:52.623Z,2.92
2023-01-17T18:41:22.137Z,2.90
2023-01-17T18:43:48.680Z,2.22
2023-01-17T18:46:18.769Z,2.60
2023-01-17T18:48:49.258Z,2.95
2023-01-17T18:51:21.816Z,2.55
2023-01-17T18:53:48.502Z,2.45
2023-01-17T18:56:20.276Z,2.28
2023-01-17T18:58:48.710Z,2.25
2023-01-17T19:03:47.246Z,2.45
2023-01-17T19:06:17.713Z,2.47
2023-01-17T19:08:45.325Z,2.40
2023-01-17T19:11:14.077Z,2.17
2023-01-17T19:13:42.009Z,2.65
2023-01-17T19:16:13.470Z,2.33
2023-01-17T19:18:40.432Z,2.28
2023-01-17T19:21:11.680Z,2.40
2023-01-17T19:23:41.512Z,2.97
2023-01-17T19:26:10.062Z,2.40
2023-01-17T19:31:10.673Z,2.00
2023-01-17T19:33:41.327Z,2.50
2023-01-17T19:36:10.487Z,2.78
2023-01-17T19:38:37.906Z,2.90
2023-01-17T19:41:15.025Z,2.63
2023-01-17T19:43:42.579Z,2.33
2023-01-17T19:46:11.285Z,2.95
2023-01-17T19:48:40.280Z,2.13
2023-01-17T19:51:12.911Z,2.63
2023-01-17T19:53:42.668Z,2.78
2023-01-17T19:56:11.899Z,3.03
2023-01-17T19:58:39.256Z,2.45
2023-01-17T20:01:11.584Z,2.88
2023-01-17T20:03:44.328Z,3.08
2023-01-17T20:06:16.576Z,3.63
2023-01-17T20:08:43.604Z,3.25
2023-01-17T20:11:16.104Z,3.85
2023-01-17T20:13:43.083Z,3.22
2023-01-17T20:16:15.527Z,3.53
2023-01-17T20:18:43.423Z,3.03
2023-01-17T20:21:13.360Z,3.17
2023-01-17T20:23:48.719Z,3.70
2023-01-17T20:26:19.203Z,3.67
2023-01-17T20:28:47.635Z,3.15
2023-01-17T20:31:20.708Z,3.42
2023-01-17T20:33:50.686Z,2.90
2023-01-17T20:36:18.455Z,3.30
2023-01-17T20:38:48.237Z,3.58
2023-01-17T20:41:23.101Z,3.60
2023-01-17T20:43:52.505Z,2.58
2023-01-17T20:46:25.085Z,3.17
2023-01-17T20:48:54.771Z,3.25
2023-01-17T20:51:23.269Z,2.88
2023-01-17T20:56:19.159Z,2.80
2023-01-17T20:58:51.650Z,3.72
2023-01-17T21:01:21.791Z,3.55
2023-01-17T21:03:51.908Z,3.00
2023-01-17T21:06:20.119Z,2.88
2023-01-17T21:08:47.548Z,3.05
2023-01-17T21:11:17.204Z,4.05
2023-01-17T21:13:44.486Z,3.30
2023-01-17T21:16:16.520Z,3.65
2023-01-17T21:18:43.672Z,3.72
2023-01-17T21:21:22.458Z,4.07
2023-01-17T21:23:53.529Z,3.17
2023-01-17T21:26:25.832Z,3.55
2023-01-17T21:28:57.992Z,3.35
2023-01-17T21:31:27.393Z,3.33
2023-01-17T21:34:01.782Z,3.25
2023-01-17T21:36:33.939Z,3.58
2023-01-17T21:39:04.828Z,3.50
2023-01-17T21:41:38.186Z,3.47
2023-01-17T21:44:13.146Z,3.20
2023-01-17T21:46:42.732Z,3.20
2023-01-17T21:49:13.078Z,2.95
2023-01-17T21:52:03.966Z,3.65
2023-01-17T21:54:52.583Z,3.47
2023-01-17T21:57:40.224Z,2.72
2023-01-17T22:00:14.477Z,3.55
2023-01-17T22:02:42.697Z,3.72
2023-01-17T22:05:10.179Z,3.40
2023-01-17T22:07:38.973Z,3.67
2023-01-17T22:10:07.552Z,4.22
2023-01-17T22:15:01.816Z,3.38
2023-01-17T22:17:29.816Z,4.03
2023-01-17T22:19:56.745Z,4.45
2023-01-17T22:22:23.752Z,4.45
2023-01-17T22:24:53.360Z,4.63
2023-01-17T22:27:20.503Z,4.40
2023-01-17T22:29:47.074Z,3.65
2023-01-17T22:32:13.622Z,3.47
2023-01-17T22:34:40.636Z,4.35
2023-01-17T22:37:10.204Z,4.10
2023-01-17T22:39:38.327Z,3.88
2023-01-17T22:42:06.232Z,3.35
2023-01-17T22:44:33.758Z,4.22
2023-01-17T22:47:00.486Z,3.83
2023-01-17T22:49:28.578Z,3.60
2023-01-17T22:51:56.642Z,4.00
2023-01-17T22:54:23.659Z,3.63
2023-01-17T22:56:50.880Z,4.57
2023-01-17T22:59:21.380Z,3.35
2023-01-17T23:01:50.309Z,3.80
2023-01-17T23:04:17.319Z,3.70
2023-01-17T23:06:45.755Z,4.47
2023-01-17T23:09:14.740Z,4.05
2023-01-17T23:11:47.837Z,3.60
2023-01-17T23:14:16.258Z,3.88
2023-01-17T23:17:07.751Z,3.78
2023-01-17T23:19:42.325Z,3.97
2023-01-17T23:22:22.087Z,3.75
2023-01-17T23:24:50.875Z,3.80
2023-01-17T23:27:39.426Z,3.67
2023-01-17T23:30:10.799Z,4.00
2023-01-17T23:32:44.424Z,3.55
2023-01-17T23:35:14.120Z,3.75
2023-01-17T23:37:59.848Z,4.32
2023-01-17T23:40:26.479Z,4.00
2023-01-17T23:43:11.996Z,3.20
2023-01-17T23:45:39.474Z,3.55
2023-01-17T23:48:09.650Z,4.03
2023-01-17T23:50:38.576Z,3.83
2023-01-17T23:53:08.486Z,3.00
2023-01-17T23:55:37.068Z,3.60
